Yellowstone Airport
KWYS : now visible

Airfield :











YOU CAN JOIN US ON...

 
LOGIN :

Register | Disclaimer

   EN    FR    IT 

 









Legend :    VFR   Marginal VFR   IFR   Intensive IFR   Very Intensive IFR
Visi :
Ceiling :
>= 8 km
>= 3000ft
5 to 8 km
1000 to 3000 ft
1500m to 5 km
500 to 1000 ft
800 to 1500m
200 to 500 ft
< 800m
< 200 ft
Symbols :   Thunderstorms  Fog  Heavy snow  Heavy precipitations  Wind > 20 kt






- Airport Elevation : 6649 ft


KWYS - Yellowstone

CURRENT METAR :
  • 180625Z AUTO 00000KT 10SM FEW027 FEW034 SCT040 M23/M25 A3010 RMK AO2

EXPIRED METARs :
  • 180610Z AUTO 00000KT 10SM SCT027 BKN033 OVC120 M23/M25 A3010 RMK AO2
  • 180550Z AUTO 00000KT 10SM BKN032 BKN039 BKN045 M21/M23 A3010 RMK AO2
  • 180530Z AUTO 00000KT 10SM CLR M21/M22 A3009 RMK AO2
  • 180510Z AUTO 00000KT 10SM CLR M20/M22 A3009 RMK AO2
  • 180450Z AUTO 02004KT 10SM CLR M19/M20 A3008 RMK AO2
  • 180425Z AUTO 00000KT 5SM BR CLR M17/M18 A3006 RMK AO2
  • 180410Z AUTO 00000KT 8SM CLR M16/M17 A3006 RMK AO2
  • 180350Z AUTO 00000KT 10SM CLR M14/M15 A3005 RMK AO2

TAF KWYS
Valid from the 18 at 06:00 until the 19 at 06:00 UTC


180520Z 1806/1906 VRB03KT P6SM VCSH SCT030 BKN045
TEMPO 1806/1809 3SM BR
FM180900 VRB04KT P6SM SCT045 BKN080
TEMPO 1809/1813 3SM BR
FM181400 00000KT P6SM FEW015 SCT045
FM182100 23007KT P6SM FEW027 FEW100



MET'MAP, your aeronautical weather chart ! - Copyright ORBIFLY December 2007 - Disclaimer

ORBIFLY MET'MAP TEAM :

Programming & Development : Alexandra Zaïnal
Concept & original design : Baudouin d'Aumeries
Assistance for programming : Marc-Olivier Méhu
Technical & hardware support : Manuel Goepfert

Contact : metmap@orbifly.com




SOURCES & CREDITS :

   NOAA       Earth
Advisory